• Join FlightAware (Why Join?)
  • Login
  • US Flag 
Rudolph Flight #1: Arrived! 
06:36AM EST


 

Airport Tracker/Info


-or-


 

Live Flight TrackerFlight Track Log ✈ N200NW ✈ 05-May-2013 ✈ KAAO - KFCM

Flight Track Log - Related Links

Times and Time Zones

All times are in EDT time to prevent confusion due to time zone crossing. See the N200NW flight status page for this flight to view local times or setup timezone preferences in your user account.

Time Position Orientation Groundspeed Altitude Reporting Facility
EDT Latitude Longitude Course Direction KTS MPH feet Rate Location/Type
12:12PM 37.7586 -97.2189 26° Northeast 144 166 2,000  Level Kansas City Center
12:13PM 37.8081 -97.2083 10° North 154 177 3,100 1,080 Climbing Kansas City Center
12:14PM 37.8247 -97.2019 17° North 157 181 3,800 1,740 Climbing Kansas City Center
12:14PM 37.8503 -97.1886 22° Northeast 160 184 4,900 1,140 Climbing Kansas City Center
12:15PM 37.8656 -97.1789 27° Northeast 159 183 5,000 60 Climbing Kansas City Center
12:15PM 37.8961 -97.1628 23° Northeast 183 211 5,000  Level Kansas City Center
12:16PM 37.9256 -97.1439 27° Northeast 198 228 5,000 900 Level Kansas City Center
12:17PM 37.9733 -97.1189 22° Northeast 182 209 6,500 1,620 Climbing Kansas City Center
12:18PM 38.1141 -97.0079 26° Northeast  Level FlightAware Approximate
12:18PM 38.0119 -97.0956 25° Northeast 156 180 8,400  Level Kansas City Center
12:19PM 38.0528 -97.0719 24° Northeast 161 185 10,100 1,680 Climbing Kansas City Center
12:20PM 38.0950 -97.0472 25° Northeast 166 191 11,900 1,800 Climbing Kansas City Center
12:21PM 38.1367 -97.0242 24° Northeast 164 189 13,800 1,800 Climbing Kansas City Center
12:22PM 38.1789 -97.0003 24° Northeast 165 190 15,600 1,800 Climbing Kansas City Center
12:23PM 38.2292 -96.9717 24° Northeast 164 189 17,600 1,680 Climbing Kansas City Center
12:24PM 38.2703 -96.9486 24° Northeast 162 186 19,100 1,500 Climbing Kansas City Center
12:25PM 38.3108 -96.9264 23° Northeast 160 184 20,800 1,500 Climbing Kansas City Center
12:26PM 38.3531 -96.9025 24° Northeast 165 190 22,200 1,380 Climbing Kansas City Center
12:27PM 38.3989 -96.8772 23° Northeast 177 204 23,700 1,380 Climbing Kansas City Center
12:28PM 38.4442 -96.8503 25° Northeast 180 207 25,100 1,320 Climbing Kansas City Center
12:29PM 38.5008 -96.8181 24° Northeast 186 214 26,500 1,140 Climbing Kansas City Center
12:30PM 38.5436 -96.7944 23° Northeast 188 216 27,500 1,020 Climbing Kansas City Center
12:31PM 38.6003 -96.7619 24° Northeast 198 228 28,700 720 Climbing Kansas City Center
12:32PM 38.6514 -96.7319 25° Northeast 214 246 29,000 120 Climbing Kansas City Center
12:33PM 38.7233 -96.6908 24° Northeast 252 290 29,000  Level Kansas City Center
12:34PM 38.7864 -96.6542 24° Northeast 266 306 29,000  Level Kansas City Center
12:35PM 38.8583 -96.6150 23° Northeast 276 318 29,000  Level Kansas City Center
12:36PM 38.9422 -96.5656 25° Northeast 277 319 29,000  Level Kansas City Center
12:38PM 39.0178 -96.5225 24° Northeast 281 323 29,000  Level Kansas City Center
12:39PM 39.0844 -96.4808 26° Northeast 279 321 29,000  Level Kansas City Center
12:40PM 39.1531 -96.4408 24° Northeast 281 323 29,000  Level Kansas City Center
12:41PM 39.2322 -96.3939 25° Northeast 279 321 29,000  Level Kansas City Center
12:42PM 39.3000 -96.3553 24° Northeast 289 333 29,000  Level Kansas City Center
12:43PM 39.3717 -96.3133 24° Northeast 287 330 29,000  Level Kansas City Center
12:44PM 39.4581 -96.2636 24° Northeast 283 326 29,000  Level Kansas City Center
12:45PM 39.5292 -96.2206 25° Northeast 282 325 29,000  Level Kansas City Center
12:46PM 39.5994 -96.1769 26° Northeast 282 325 29,000  Level Kansas City Center
12:47PM 39.6694 -96.1367 24° Northeast 288 331 29,000  Level Kansas City Center
12:48PM 39.7500 -96.0886 25° Northeast 285 328 29,000  Level Kansas City Center
12:49PM 39.8181 -96.0478 25° Northeast 282 325 29,000  Level Kansas City Center
12:50PM 39.8989 -95.9983 25° Northeast 285 328 29,000  Level Kansas City Center
12:51PM 39.9631 -95.9592 25° Northeast 283 326 29,000  Level Minneapolis Center
12:52PM 40.0356 -95.9164 24° Northeast 285 328 29,000  Level Minneapolis Center
12:53PM 40.1075 -95.8714 26° Northeast 286 329 29,000  Level Minneapolis Center
12:54PM 40.1803 -95.8278 25° Northeast 287 330 29,000  Level Minneapolis Center
12:55PM 40.2511 -95.7853 25° Northeast 285 328 29,000  Level Minneapolis Center
12:56PM 40.3231 -95.7408 25° Northeast 285 328 29,000  Level Minneapolis Center
12:57PM 40.4092 -95.6886 25° Northeast 284 327 29,000  Level Minneapolis Center
12:58PM 40.4811 -95.6453 25° Northeast 286 329 29,000  Level Minneapolis Center
12:59PM 40.5528 -95.6014 25° Northeast 284 327 29,000  Level Minneapolis Center
01:00PM 40.6239 -95.5575 25° Northeast 283 326 29,000  Level Minneapolis Center
01:01PM 40.6961 -95.5139 25° Northeast 285 328 29,000  Level Minneapolis Center
01:02PM 40.7669 -95.4700 25° Northeast 282 325 29,000  Level Minneapolis Center
01:03PM 40.8536 -95.4156 25° Northeast 287 330 29,000  Level Minneapolis Center
01:04PM 40.9250 -95.3719 25° Northeast 285 328 29,000  Level Minneapolis Center
01:05PM 40.9967 -95.3272 25° Northeast 285 328 29,000  Level Minneapolis Center
01:06PM 41.0686 -95.2828 25° Northeast 286 329 29,000  Level Minneapolis Center
01:07PM 41.1400 -95.2378 25° Northeast 286 329 29,000  Level Minneapolis Center
01:08PM 41.2267 -95.1839 25° Northeast 288 331 29,000  Level Minneapolis Center
01:09PM 41.2975 -95.1389 26° Northeast 285 328 29,000  Level Minneapolis Center
01:10PM 41.3703 -95.0939 25° Northeast 287 330 29,000  Level Minneapolis Center
01:11PM 41.4414 -95.0497 25° Northeast 285 328 29,000  Level Minneapolis Center
01:12PM 41.5128 -95.0039 26° Northeast 285 328 29,000  Level Minneapolis Center
01:14PM 41.5842 -94.9581 26° Northeast 285 328 29,000  Level Minneapolis Center
01:15PM 41.6697 -94.9044 25° Northeast 283 326 29,000  Level Minneapolis Center
01:16PM 41.7419 -94.8594 25° Northeast 286 329 29,000  Level Minneapolis Center
01:17PM 41.8136 -94.8144 25° Northeast 285 328 29,000  Level Minneapolis Center
01:18PM 41.8844 -94.7669 27° Northeast 285 328 29,000  Level Minneapolis Center
01:19PM 41.9558 -94.7214 25° Northeast 285 328 29,000  Level Minneapolis Center
01:20PM 42.0281 -94.6756 25° Northeast 287 330 29,000  Level Minneapolis Center
01:21PM 42.1147 -94.6200 25° Northeast 287 330 29,000  Level Minneapolis Center
01:22PM 42.1856 -94.5736 26° Northeast 285 328 29,000  Level Minneapolis Center
01:23PM 42.2581 -94.5278 25° Northeast 287 330 29,000  Level Minneapolis Center
01:24PM 42.3286 -94.4797 27° Northeast 285 328 29,000  Level Minneapolis Center
01:25PM 42.4014 -94.4342 25° Northeast 287 330 29,000  Level Minneapolis Center
01:26PM 42.4697 -94.3869 27° Northeast 281 323 29,000  Level Minneapolis Center
01:27PM 42.5450 -94.3375 26° Northeast 282 325 29,000  Level Minneapolis Center
01:28PM 42.6167 -94.2914 25° Northeast 285 328 29,000  Level Minneapolis Center
01:29PM 42.6769 -94.2244 39° Northeast 283 326 29,000  Level Minneapolis Center
01:30PM 42.7489 -94.1458 39° Northeast 279 321 29,000  Level Minneapolis Center
01:31PM 42.8083 -94.0781 40° Northeast 280 322 29,000  Level Minneapolis Center
01:32PM 42.8689 -94.0125 38° Northeast 280 322 29,000  Level Minneapolis Center
01:33PM 42.9283 -93.9453 40° Northeast 281 323 29,000  Level Minneapolis Center
01:34PM 43.0036 -93.9136 17° North 287 330 29,000 -60 Level Minneapolis Center
01:35PM 43.0936 -93.8847 13° North 282 325 28,900 -300 Descending Minneapolis Center
01:36PM 43.1692 -93.8564 15° North 284 327 28,400 -1,020 Descending Minneapolis Center
01:37PM 43.2503 -93.8258 15° North 298 343 26,800 -1,560 Descending Minneapolis Center
01:38PM 43.3303 -93.7956 15° North 300 345 25,200 -1,620 Descending Minneapolis Center
01:39PM 43.4106 -93.7650 15° North 300 345 23,500 -1,740 Descending Minneapolis Center
01:40PM 43.5056 -93.7314 14° North 298 343 21,700 -1,680 Descending Minneapolis Center
01:41PM 43.5861 -93.7017 15° North 290 334 20,100 -1,560 Descending Minneapolis Center
01:42PM 43.6628 -93.6728 15° North 287 330 18,500 -1,440 Descending Minneapolis Center
01:43PM 43.7436 -93.6447 14° North 297 342 17,200 -1,440 Descending Minneapolis Center
01:45PM 43.8264 -93.6153 14° North 306 352 15,600 -1,800 Descending Minneapolis Center
01:46PM 43.9092 -93.5856 15° North 307 353 13,600 -1,920 Descending Minneapolis Center
01:47PM 43.9911 -93.5542 15° North 304 350 11,700 -1,920 Descending Minneapolis Center
01:48PM 44.0864 -93.5189 15° North 295 339 9,700 -1,800 Descending Minneapolis Center
01:49PM 44.1628 -93.4908 15° North 283 326 8,100 -1,320 Descending Minneapolis Center
01:50PM 44.2350 -93.4633 15° North 271 312 7,000 -600 Descending Minneapolis Center
01:51PM 44.3039 -93.4625 360° North 248 285 6,900 -780 Descending Minneapolis Center
01:52PM 44.3747 -93.4594 North 255 293 5,500 -960 Descending Minneapolis Center
01:53PM 44.4467 -93.4569 North 257 296 5,000 -720 Descending Minneapolis Center
01:54PM 44.5278 -93.4544 North 246 283 4,100 -540 Descending Minneapolis Center
01:55PM 44.5961 -93.4522 North 245 282 4,000 -300 Descending Minneapolis Center
01:56PM 44.6625 -93.4497 North 239 275 3,500 -660 Descending Minneapolis Center
01:57PM 44.7294 -93.4744 345° North 246 283 2,700 -540 Descending Minneapolis Center
01:58PM 44.7861 -93.5017 341° North 216 249 2,500 -600 Descending Minneapolis Center
01:59PM 44.8244 -93.5100 351° North 139 160 1,500 -780 Descending Minneapolis Center
02:00PM 44.8289 -93.4678 82° East 121 139 900 -600 Descending Minneapolis Center
02:02PM 44.8275 -93.4586 90° East  Level Estimated
02:09PM 44.8275 -93.4586 90° East  Level Estimated